Change Islands, Canada
Current Conditions -  °F | °C
As of 12:00 AM on Saturday 22 Nov 2014 (Local Time) from CYQX Reporting Station
Broken Clouds Broken Clouds  
Wind Chill: 13°   Ceiling: 2800
Heat Index: 27°   Visibility: 15mi
Dew Point: 21°   Wind: 20mph
Humidity: 80%   Direction: 270°W
Pressure: 29.4"   Gusts: 30mph
Location:  49.65°N, 54.38°W
Report Text: CYQX 220300Z 27017G26KT 15SM SCT015 BKN028 M03/M06 A2940 RMK SC4SC3 SLP961
Loading
Personal Weather Stations






























Interactive Weather Map New forecast layout! Learn more

10-Day Weather Forecast

Advertisements
Track Severe Weather on mobile